Time;durP1;ratioP1;P1;durP2;ratioP2;P2;SDS_P1;SDS_P2;PMS_P1;PMS_P2;Temp;Humidity;BMP_temperature;BMP_pressure;BME280_temperature;BME280_humidity;BME280_pressure;Samples;Min_cycle;Max_cycle;Signal;HPM_P1;HPM_P2
2023/10/19 00:00:50;;;;;;;15.88;9.15;;;23.60;52.80;;;;;;5092264;28;20115;-74
2023/10/19 00:03:19;;;;;;;15.77;9.35;;;23.60;52.80;;;;;;5074480;28;20040;-75
2023/10/19 00:05:46;;;;;;;13.70;8.60;;;23.60;52.80;;;;;;5074420;28;20055;-74
2023/10/19 00:10:42;;;;;;;18.30;9.05;;;23.50;52.90;;;;;;5092345;28;20039;-74
2023/10/19 00:13:11;;;;;;;15.90;9.05;;;23.60;52.90;;;;;;5092462;28;20436;-75
2023/10/19 00:16:10;;;;;;;14.10;9.43;;;23.60;52.90;;;;;;5092343;28;20448;-74
2023/10/19 00:18:32;;;;;;;14.50;9.05;;;23.50;53.00;;;;;;5091784;28;20051;-75
2023/10/19 00:21:18;;;;;;;12.70;8.05;;;23.50;53.00;;;;;;5092264;28;20486;-74
2023/10/19 00:23:47;;;;;;;19.75;9.25;;;23.30;52.90;;;;;;5092549;28;20024;-75
2023/10/19 00:26:19;;;;;;;15.13;9.18;;;23.50;53.00;;;;;;5092471;28;20056;-74
2023/10/19 00:28:55;;;;;;;14.77;9.13;;;23.50;53.10;;;;;;5091999;28;20131;-74
2023/10/19 00:31:22;;;;;;;17.33;9.75;;;23.40;52.90;;;;;;5057462;28;20051;-74
2023/10/19 00:33:51;;;;;;;15.85;9.93;;;23.40;53.00;;;;;;5057473;28;20036;-72
2023/10/19 00:36:20;;;;;;;18.67;9.75;;;23.50;53.00;;;;;;5073762;28;20043;-75
2023/10/19 00:41:14;;;;;;;17.30;9.88;;;23.40;52.80;;;;;;5068953;28;20432;-74
2023/10/19 00:43:43;;;;;;;18.85;9.63;;;23.50;52.90;;;;;;5069304;28;20032;-75
2023/10/19 00:49:05;;;;;;;16.83;10.35;;;23.50;52.90;;;;;;5069062;28;20049;-75
2023/10/19 00:57:10;;;;;;;18.92;10.00;;;23.50;52.80;;;;;;4993492;28;20037;-74
2023/10/19 00:59:54;;;;;;;15.88;9.35;;;23.50;52.80;;;;;;5009274;28;20037;-74
2023/10/19 01:02:29;;;;;;;16.05;9.57;;;23.40;52.70;;;;;;5009239;28;20046;-75
2023/10/19 01:05:00;;;;;;;17.50;9.95;;;23.50;52.90;;;;;;5009262;28;20100;-75
2023/10/19 01:07:29;;;;;;;16.48;9.05;;;23.30;52.80;;;;;;4992664;28;20054;-75
2023/10/19 01:10:00;;;;;;;19.05;9.00;;;23.30;52.90;;;;;;5008739;28;20060;-75
2023/10/19 01:12:38;;;;;;;16.55;9.32;;;23.30;52.90;;;;;;5020835;28;20057;-75
2023/10/19 01:17:56;;;;;;;18.33;9.73;;;23.30;53.00;;;;;;5028993;28;20503;-74
2023/10/19 01:29:00;;;;;;;16.58;10.07;;;23.30;52.90;;;;;;5038724;28;20040;-74
2023/10/19 01:33:57;;;;;;;14.18;8.35;;;23.40;52.90;;;;;;5009009;28;20042;-75
2023/10/19 01:36:26;;;;;;;16.02;9.20;;;23.40;52.90;;;;;;5009007;28;20042;-75
2023/10/19 01:38:54;;;;;;;16.10;9.40;;;23.30;52.80;;;;;;5010755;28;20401;-74
2023/10/19 01:41:21;;;;;;;13.05;9.30;;;23.40;52.80;;;;;;4992350;28;20156;-75
2023/10/19 01:43:50;;;;;;;17.42;8.98;;;23.30;52.80;;;;;;5008634;28;20053;-74
2023/10/19 01:46:31;;;;;;;15.95;9.35;;;23.50;52.90;;;;;;5009065;28;20041;-75
2023/10/19 01:48:57;;;;;;;14.40;10.23;;;23.40;52.70;;;;;;5026063;28;20052;-75
2023/10/19 01:51:28;;;;;;;15.68;9.65;;;23.40;52.70;;;;;;5012755;28;20041;-75
2023/10/19 01:54:00;;;;;;;18.45;10.55;;;23.40;52.70;;;;;;5012550;28;20382;-72
2023/10/19 01:56:26;;;;;;;16.43;8.93;;;23.30;52.70;;;;;;4996148;28;20065;-74
2023/10/19 01:58:54;;;;;;;15.77;9.43;;;23.40;52.80;;;;;;4996120;28;20124;-73
2023/10/19 02:01:28;;;;;;;16.27;9.00;;;23.20;52.70;;;;;;5012068;28;20490;-73
2023/10/19 02:03:59;;;;;;;19.23;9.82;;;23.30;52.80;;;;;;5028431;28;20042;-73
2023/10/19 02:06:46;;;;;;;15.73;9.52;;;23.30;52.80;;;;;;5012067;28;20189;-72
2023/10/19 02:11:52;;;;;;;13.95;9.15;;;23.20;52.70;;;;;;5059557;28;20479;-70
2023/10/19 02:14:19;;;;;;;18.33;9.55;;;23.30;52.80;;;;;;5075707;28;20614;-70
2023/10/19 02:16:50;;;;;;;15.93;9.13;;;23.20;52.70;;;;;;5094274;28;20337;-70
2023/10/19 02:19:17;;;;;;;19.20;10.00;;;23.10;52.70;;;;;;5059372;28;20123;-71
2023/10/19 02:21:47;;;;;;;16.23;8.68;;;23.20;52.60;;;;;;5075655;28;20061;-72
2023/10/19 02:24:14;;;;;;;17.73;9.02;;;23.20;52.60;;;;;;5075471;28;20043;-72
2023/10/19 02:26:41;;;;;;;17.33;9.60;;;23.30;52.60;;;;;;5075674;28;20036;-72
2023/10/19 02:29:09;;;;;;;18.00;9.55;;;23.30;52.60;;;;;;5093593;28;20039;-70
2023/10/19 02:31:40;;;;;;;17.58;9.52;;;23.20;52.40;;;;;;5075688;28;20036;-72
2023/10/19 02:34:10;;;;;;;15.00;9.35;;;23.20;52.40;;;;;;5075729;28;20044;-72
2023/10/19 02:36:38;;;;;;;17.83;9.93;;;23.30;52.40;;;;;;5094014;28;20036;-72
2023/10/19 02:39:09;;;;;;;18.42;9.38;;;23.20;52.30;;;;;;5059294;28;20391;-72
2023/10/19 02:41:36;;;;;;;18.17;9.50;;;23.30;52.30;;;;;;5042448;28;20496;-72
2023/10/19 02:44:09;;;;;;;14.20;9.90;;;23.20;52.10;;;;;;5058695;28;20123;-72
2023/10/19 02:46:41;;;;;;;14.65;9.30;;;23.30;52.20;;;;;;5058559;28;20032;-72
2023/10/19 02:49:13;;;;;;;16.55;9.40;;;23.20;52.00;;;;;;5075239;28;20483;-72
2023/10/19 02:51:46;;;;;;;16.08;9.88;;;23.20;52.10;;;;;;5074938;28;20075;-72
2023/10/19 02:54:22;;;;;;;13.98;10.05;;;23.40;52.20;;;;;;5075427;28;20074;-72
2023/10/19 02:56:53;;;;;;;17.70;10.15;;;23.20;52.10;;;;;;5075179;28;20121;-71
2023/10/19 02:59:24;;;;;;;18.85;11.60;;;23.20;52.10;;;;;;5058708;28;20111;-70
2023/10/19 03:04:35;;;;;;;20.23;10.70;;;23.20;52.20;;;;;;5093035;28;20078;-72
2023/10/19 03:07:05;;;;;;;17.67;11.32;;;23.00;52.10;;;;;;5075055;28;20103;-73
2023/10/19 03:09:38;;;;;;;15.98;10.82;;;23.10;52.10;;;;;;5092501;28;20027;-70
2023/10/19 03:12:09;;;;;;;;;;;23.30;52.20;;;;;;5058756;28;20455;-72
2023/10/19 03:14:35;;;;;;;20.25;10.32;;;23.20;52.10;;;;;;5092802;28;19934;-70
2023/10/19 03:17:01;;;;;;;17.42;10.98;;;23.20;52.10;;;;;;5077282;28;20123;-71
2023/10/19 03:19:27;;;;;;;13.55;8.75;;;23.20;52.10;;;;;;5094941;28;20043;-72
2023/10/19 03:22:00;;;;;;;16.40;10.57;;;23.10;52.20;;;;;;5112539;28;20023;-72
2023/10/19 03:24:35;;;;;;;15.13;9.40;;;23.00;52.10;;;;;;5094426;28;20494;-71
2023/10/19 03:27:17;;;;;;;27.83;16.15;;;23.10;52.20;;;;;;5078927;28;20062;-69
2023/10/19 03:29:46;;;;;;;20.02;12.13;;;23.10;52.20;;;;;;5113567;28;20127;-71
2023/10/19 03:32:13;;;;;;;15.60;10.43;;;22.90;52.10;;;;;;5111132;28;20036;-71
2023/10/19 03:34:38;;;;;;;17.95;9.85;;;23.00;52.00;;;;;;5112662;28;20028;-72
2023/10/19 03:37:12;;;;;;;13.40;7.35;;;22.90;52.00;;;;;;5094281;28;20039;-72
2023/10/19 03:39:38;;;;;;;9.27;6.32;;;23.00;52.00;;;;;;5077582;28;20378;-72
2023/10/19 03:42:06;;;;;;;6.90;5.15;;;23.00;52.10;;;;;;5094561;28;20474;-72
2023/10/19 03:47:18;;;;;;;13.20;8.50;;;23.20;51.90;;;;;;5090127;28;20020;-72
2023/10/19 03:49:44;;;;;;;14.73;8.70;;;23.10;51.90;;;;;;5094118;28;20040;-71
2023/10/19 03:54:41;;;;;;;17.10;9.73;;;23.10;51.70;;;;;;5113331;28;20063;-73
2023/10/19 03:57:29;;;;;;;15.02;8.95;;;23.20;51.70;;;;;;5052949;28;20387;-73
2023/10/19 03:59:59;;;;;;;16.58;9.93;;;23.20;51.80;;;;;;5069764;28;20218;-71
2023/10/19 04:02:27;;;;;;;14.80;9.57;;;23.20;51.90;;;;;;5052459;28;20047;-71
2023/10/19 04:04:55;;;;;;;5.75;4.32;;;23.30;52.00;;;;;;5053203;28;20036;-71
2023/10/19 04:07:21;;;;;;;7.63;5.20;;;23.30;53.50;;;;;;5052698;28;20044;-70
2023/10/19 04:12:37;;;;;;;11.98;6.88;;;23.40;48.60;;;;;;5029283;28;20041;-71
2023/10/19 04:15:14;;;;;;;12.70;6.07;;;23.50;46.30;;;;;;5029758;28;20069;-72
2023/10/19 04:17:42;;;;;;;16.17;9.40;;;23.50;46.70;;;;;;5029549;28;20041;-68
2023/10/19 04:22:41;;;;;;;14.57;9.70;;;23.80;49.40;;;;;;5012720;28;20432;-70
2023/10/19 04:25:08;;;;;;;14.07;10.02;;;24.40;53.90;;;;;;5028858;28;20041;-72
2023/10/19 04:27:37;;;;;;;13.90;9.63;;;24.60;56.10;;;;;;5023275;28;20128;-72
2023/10/19 04:30:03;;;;;;;14.80;10.15;;;24.50;50.90;;;;;;5068732;28;20494;-70
2023/10/19 04:32:31;;;;;;;14.50;10.10;;;24.30;50.20;;;;;;5052409;28;20047;-73
2023/10/19 04:34:58;;;;;;;15.05;9.45;;;24.20;50.10;;;;;;5068757;28;20124;-73
2023/10/19 04:37:24;;;;;;;16.63;9.60;;;24.20;50.10;;;;;;5052281;28;20051;-74
2023/10/19 04:39:50;;;;;;;17.80;9.48;;;24.10;50.30;;;;;;5073891;28;20036;-73
2023/10/19 04:42:16;;;;;;;22.13;11.05;;;24.00;50.40;;;;;;5112171;28;20044;-74
2023/10/19 04:44:42;;;;;;;19.90;12.10;;;24.00;50.60;;;;;;5112159;28;20028;-72
2023/10/19 04:47:08;;;;;;;24.55;12.88;;;24.00;50.80;;;;;;5112267;28;20130;-71
2023/10/19 04:49:34;;;;;;;30.90;14.18;;;23.90;50.90;;;;;;5111969;28;20027;-73
2023/10/19 04:52:00;;;;;;;23.20;14.23;;;24.00;51.10;;;;;;5052166;28;20056;-73
2023/10/19 04:54:27;;;;;;;28.92;15.18;;;23.90;51.30;;;;;;5068836;28;20048;-72
2023/10/19 04:56:55;;;;;;;22.00;13.57;;;24.00;51.50;;;;;;5068857;28;21158;-73
2023/10/19 04:59:21;;;;;;;22.17;13.52;;;24.00;51.80;;;;;;5035493;28;20044;-73
2023/10/19 05:01:47;;;;;;;21.17;12.50;;;24.00;51.80;;;;;;5068486;28;20045;-76
2023/10/19 05:04:13;;;;;;;18.55;8.98;;;24.00;52.10;;;;;;5052162;28;20028;-76
2023/10/19 05:06:39;;;;;;;9.60;6.15;;;24.00;52.00;;;;;;5068787;28;20118;-77
2023/10/19 05:09:06;;;;;;;7.43;5.20;;;23.90;51.70;;;;;;5068717;28;20048;-75
2023/10/19 05:11:31;;;;;;;8.07;5.75;;;24.00;51.70;;;;;;5068882;28;20122;-72
2023/10/19 05:13:57;;;;;;;9.02;7.43;;;23.90;47.20;;;;;;5068803;28;20603;-72
2023/10/19 05:16:23;;;;;;;10.55;8.43;;;23.90;45.50;;;;;;5068267;28;20468;-71
2023/10/19 05:18:49;;;;;;;11.13;8.80;;;23.90;45.30;;;;;;5068579;28;20135;-72
2023/10/19 05:21:15;;;;;;;10.88;8.73;;;23.90;45.30;;;;;;5052075;28;20179;-72
2023/10/19 05:23:41;;;;;;;13.75;10.00;;;23.90;43.80;;;;;;5084940;28;20054;-73
2023/10/19 05:26:07;;;;;;;11.18;7.53;;;23.80;43.30;;;;;;5099879;28;20048;-74
2023/10/19 05:28:33;;;;;;;15.05;9.15;;;23.90;43.30;;;;;;5060405;28;20032;-70
2023/10/19 05:30:59;;;;;;;14.30;9.98;;;23.80;43.20;;;;;;5094899;28;20506;-73
2023/10/19 05:33:29;;;;;;;23.83;12.98;;;23.80;44.20;;;;;;5083340;28;20042;-72
2023/10/19 05:35:55;;;;;;;24.35;13.20;;;23.90;49.10;;;;;;5115239;28;20023;-72
2023/10/19 05:38:22;;;;;;;21.92;13.15;;;23.90;53.30;;;;;;5115045;28;20032;-71
2023/10/19 05:40:49;;;;;;;20.25;13.05;;;24.00;53.60;;;;;;5115156;28;20027;-72
2023/10/19 05:43:17;;;;;;;23.92;13.93;;;23.90;54.20;;;;;;5096839;28;20034;-74
2023/10/19 05:45:43;;;;;;;20.15;13.77;;;23.90;53.90;;;;;;5096946;28;20118;-75
2023/10/19 05:48:11;;;;;;;23.73;14.10;;;24.00;52.90;;;;;;5115278;28;20036;-75
2023/10/19 05:50:37;;;;;;;24.58;12.98;;;23.90;52.30;;;;;;5114791;28;20040;-76
2023/10/19 05:53:05;;;;;;;20.73;12.25;;;23.90;51.90;;;;;;5094707;28;20046;-75
2023/10/19 05:55:31;;;;;;;26.40;14.73;;;23.90;51.70;;;;;;5096907;28;20028;-75
2023/10/19 05:57:59;;;;;;;23.20;13.98;;;23.80;53.20;;;;;;5079744;28;20111;-75
2023/10/19 06:00:28;;;;;;;21.70;12.98;;;23.90;52.80;;;;;;5115205;28;20387;-79
2023/10/19 06:02:54;;;;;;;21.73;11.68;;;23.90;52.10;;;;;;5115390;28;20016;-75
2023/10/19 06:05:20;;;;;;;21.35;12.52;;;23.90;51.80;;;;;;5115283;28;20043;-75
2023/10/19 06:07:47;;;;;;;15.10;10.57;;;23.90;51.70;;;;;;5115383;28;20032;-75
2023/10/19 06:10:20;;;;;;;14.65;10.15;;;23.90;51.70;;;;;;5114930;28;20101;-74
2023/10/19 06:12:47;;;;;;;18.48;9.98;;;23.90;51.70;;;;;;5115074;28;20067;-74
2023/10/19 06:15:15;;;;;;;16.42;9.07;;;23.90;51.80;;;;;;5115075;28;20070;-73
2023/10/19 06:17:42;;;;;;;13.60;8.90;;;23.80;51.70;;;;;;5096902;28;20394;-72
2023/10/19 06:20:28;;;;;;;9.65;6.45;;;23.90;51.90;;;;;;5114847;28;20099;-74
2023/10/19 06:22:59;;;;;;;13.07;8.02;;;24.00;52.00;;;;;;5115145;28;20039;-72
2023/10/19 06:25:26;;;;;;;14.48;9.63;;;23.90;52.10;;;;;;5106722;28;20051;-73
2023/10/19 06:27:53;;;;;;;14.07;9.55;;;23.90;51.90;;;;;;5101720;28;20039;-74
2023/10/19 06:30:22;;;;;;;16.88;9.93;;;23.90;52.00;;;;;;5094519;28;21063;-74
2023/10/19 06:33:00;;;;;;;22.05;10.45;;;23.80;51.90;;;;;;5077565;28;20073;-75
2023/10/19 06:35:27;;;;;;;17.70;9.63;;;23.90;52.20;;;;;;5096987;28;20035;-75
2023/10/19 06:37:54;;;;;;;18.40;10.00;;;23.80;52.10;;;;;;5114639;28;20116;-78
2023/10/19 06:40:22;;;;;;;15.82;9.13;;;24.00;52.30;;;;;;5114665;28;20035;-75
2023/10/19 06:42:49;;;;;;;15.38;9.93;;;23.90;52.50;;;;;;5083196;28;20424;-74
2023/10/19 06:45:18;;;;;;;14.77;9.73;;;23.70;52.50;;;;;;5094573;28;20032;-73
2023/10/19 06:47:47;;;;;;;17.95;9.48;;;23.90;52.70;;;;;;5094493;28;20043;-76
2023/10/19 06:50:15;;;;;;;14.20;8.98;;;23.90;52.80;;;;;;5094132;28;20038;-78
2023/10/19 06:52:42;;;;;;;14.98;8.52;;;23.70;53.10;;;;;;5076315;28;20392;-74
2023/10/19 06:55:25;;;;;;;11.10;7.68;;;23.80;53.30;;;;;;5094523;28;20047;-74
2023/10/19 06:58:00;;;;;;;16.40;8.20;;;23.70;53.60;;;;;;5076278;28;20040;-75
2023/10/19 07:00:27;;;;;;;15.68;7.68;;;23.80;53.90;;;;;;5093857;28;20059;-79
2023/10/19 07:02:57;;;;;;;10.75;7.35;;;23.60;53.80;;;;;;5114883;28;20067;-77
2023/10/19 07:05:41;;;;;;;12.80;7.20;;;23.50;53.90;;;;;;5114484;28;20028;-76
2023/10/19 07:08:07;;;;;;;13.55;6.30;;;23.80;54.00;;;;;;5114026;28;20032;-76
2023/10/19 07:10:34;;;;;;;11.75;7.07;;;23.70;54.00;;;;;;5114229;28;20039;-76
2023/10/19 07:13:00;;;;;;;9.32;6.05;;;23.60;53.90;;;;;;5114270;28;20479;-75
2023/10/19 07:15:28;;;;;;;9.13;5.60;;;23.70;54.00;;;;;;5114214;28;20115;-76
2023/10/19 07:17:54;;;;;;;10.65;6.43;;;23.80;54.00;;;;;;5114317;28;20019;-76
2023/10/19 07:20:29;;;;;;;10.10;6.90;;;23.70;54.00;;;;;;5113959;28;20031;-73
2023/10/19 07:23:00;;;;;;;11.07;6.18;;;23.80;54.00;;;;;;5095412;28;20024;-76
2023/10/19 07:25:26;;;;;;;11.07;6.47;;;23.80;53.80;;;;;;5113626;28;20143;-73
2023/10/19 07:27:52;;;;;;;7.55;5.90;;;23.70;53.90;;;;;;5093897;28;20040;-75
2023/10/19 07:30:26;;;;;;;10.38;6.20;;;23.70;53.80;;;;;;5093880;28;20479;-76
2023/10/19 07:32:58;;;;;;;7.45;5.75;;;23.80;54.00;;;;;;5075368;28;20692;-75
2023/10/19 07:35:27;;;;;;;9.65;5.65;;;23.80;54.10;;;;;;5074421;28;20045;-75
2023/10/19 07:37:55;;;;;;;11.25;6.47;;;23.80;54.20;;;;;;5093202;28;20028;-73
2023/10/19 07:40:22;;;;;;;7.93;5.65;;;23.80;54.20;;;;;;5074781;28;20040;-73
2023/10/19 07:42:49;;;;;;;7.25;5.63;;;23.70;53.90;;;;;;5075274;28;20114;-74
2023/10/19 07:45:16;;;;;;;5.60;4.68;;;23.70;53.80;;;;;;5075619;28;20042;-71
2023/10/19 07:47:43;;;;;;;9.07;4.00;;;23.80;54.00;;;;;;5074440;28;20032;-75
2023/10/19 07:50:15;;;;;;;8.27;3.90;;;23.70;54.00;;;;;;5075749;28;20471;-74
2023/10/19 07:52:48;;;;;;;6.05;3.33;;;23.80;54.10;;;;;;5103814;28;20032;-73
2023/10/19 07:55:15;;;;;;;6.25;4.68;;;23.80;54.40;;;;;;5113670;28;20355;-73
2023/10/19 07:57:42;;;;;;;4.78;4.07;;;23.80;54.60;;;;;;5113258;28;20042;-72
2023/10/19 08:00:10;;;;;;;6.72;5.00;;;23.80;54.50;;;;;;5113103;28;20035;-70
2023/10/19 08:02:37;;;;;;;10.82;4.03;;;23.80;54.50;;;;;;5094987;28;20127;-71
2023/10/19 08:05:06;;;;;;;8.32;5.10;;;23.80;54.00;;;;;;5113208;28;20036;-71
2023/10/19 08:07:34;;;;;;;4.88;4.32;;;23.80;54.10;;;;;;5053116;28;20367;-72
2023/10/19 08:10:02;;;;;;;7.75;4.90;;;23.80;54.00;;;;;;5052668;28;20045;-70
2023/10/19 08:12:28;;;;;;;5.35;4.07;;;23.80;54.90;;;;;;5069845;28;20052;-71
2023/10/19 08:14:55;;;;;;;5.63;4.10;;;23.80;55.50;;;;;;5053229;28;20032;-70
2023/10/19 08:17:22;;;;;;;5.60;4.60;;;23.90;55.00;;;;;;5069459;28;20433;-74
2023/10/19 08:19:47;;;;;;;8.13;3.95;;;23.80;54.40;;;;;;5069191;28;20040;-71
2023/10/19 08:22:14;;;;;;;7.28;3.70;;;23.90;54.20;;;;;;5069825;28;20389;-72
2023/10/19 08:24:43;;;;;;;8.18;4.50;;;23.80;54.00;;;;;;5052351;28;20488;-72
2023/10/19 08:27:10;;;;;;;9.68;4.65;;;23.90;54.30;;;;;;5052608;28;20091;-69
2023/10/19 08:29:37;;;;;;;7.45;4.35;;;23.80;54.30;;;;;;5068736;28;20158;-71
2023/10/19 08:32:04;;;;;;;9.25;3.95;;;23.90;55.10;;;;;;5069190;28;20170;-73
2023/10/19 08:34:35;;;;;;;18.25;5.85;;;24.10;54.00;;;;;;5069241;28;20082;-71
2023/10/19 08:37:04;;;;;;;7.85;5.18;;;24.10;53.10;;;;;;5069128;28;20554;-69
2023/10/19 08:39:37;;;;;;;8.23;4.70;;;24.20;53.60;;;;;;5089417;28;20056;-73
2023/10/19 08:42:04;;;;;;;9.38;4.95;;;24.30;54.80;;;;;;5092096;28;20068;-72
2023/10/19 08:44:31;;;;;;;6.03;4.75;;;24.30;53.60;;;;;;5092224;28;20506;-69
2023/10/19 08:46:59;;;;;;;6.07;4.07;;;24.40;53.40;;;;;;5091417;28;20036;-68
2023/10/19 08:49:28;;;;;;;7.00;4.78;;;24.40;55.10;;;;;;5091663;28;20043;-72
2023/10/19 08:51:56;;;;;;;12.02;8.18;;;24.40;51.10;;;;;;5092168;28;20560;-75
2023/10/19 08:54:22;;;;;;;6.80;5.47;;;24.40;51.90;;;;;;5092053;28;20353;-71
2023/10/19 08:56:48;;;;;;;9.90;5.68;;;24.50;52.00;;;;;;5091809;28;20398;-76
2023/10/19 08:59:17;;;;;;;9.35;4.78;;;24.40;52.00;;;;;;5090827;28;20040;-74
2023/10/19 09:01:43;;;;;;;7.57;5.57;;;24.50;52.20;;;;;;5091674;28;20138;-74
2023/10/19 09:04:16;;;;;;;9.13;5.45;;;24.50;52.40;;;;;;5074101;28;20035;-72
2023/10/19 09:06:42;;;;;;;7.28;5.57;;;24.30;52.30;;;;;;5073664;28;20181;-74
2023/10/19 09:09:16;;;;;;;9.70;5.20;;;24.50;52.50;;;;;;5073594;28;20472;-73
2023/10/19 09:11:48;;;;;;;11.68;5.75;;;24.50;52.70;;;;;;5091443;28;20042;-73
2023/10/19 09:14:17;;;;;;;7.70;5.35;;;24.50;52.70;;;;;;5091611;28;20032;-72
2023/10/19 09:16:57;;;;;;;5.78;3.95;;;24.50;52.80;;;;;;5056803;28;20055;-73
2023/10/19 09:19:41;;;;;;;7.78;5.82;;;24.50;52.80;;;;;;5048901;28;20068;-72
2023/10/19 09:22:16;;;;;;;4.40;3.30;;;24.50;53.40;;;;;;5048847;28;20462;-73
2023/10/19 09:24:44;;;;;;;13.95;5.38;;;24.50;53.40;;;;;;5048819;28;20109;-73
2023/10/19 09:27:12;;;;;;;7.22;4.22;;;24.50;53.20;;;;;;5032682;28;20548;-73
2023/10/19 09:29:38;;;;;;;7.28;4.90;;;24.50;53.20;;;;;;5068386;28;20082;-71
2023/10/19 09:32:06;;;;;;;7.25;4.00;;;24.40;53.10;;;;;;5067721;28;20200;-73
2023/10/19 09:34:34;;;;;;;14.45;5.20;;;24.50;54.90;;;;;;5051534;28;20043;-73
2023/10/19 09:37:01;;;;;;;5.95;3.92;;;24.70;56.10;;;;;;5051338;28;20037;-72
2023/10/19 09:39:34;;;;;;;10.82;5.63;;;25.00;59.60;;;;;;5068442;28;20127;-70
2023/10/19 09:42:05;;;;;;;;;;;25.20;61.50;;;;;;5067906;28;20040;-71
2023/10/19 09:44:43;;;;;;;8.77;4.90;;;25.20;57.20;;;;;;5044428;28;19908;-70
2023/10/19 09:47:35;;;;;;;9.15;4.78;;;25.10;55.50;;;;;;5048262;28;20037;-72
2023/10/19 09:50:02;;;;;;;9.63;5.18;;;25.00;59.30;;;;;;4998905;28;20037;-70
2023/10/19 09:52:31;;;;;;;7.55;4.22;;;25.20;64.10;;;;;;5027882;28;20049;-68
2023/10/19 09:55:29;;;;;;;7.90;5.53;;;25.60;59.70;;;;;;5011629;28;20047;-71
2023/10/19 09:58:19;;;;;;;5.50;3.97;;;26.00;57.60;;;;;;5028193;28;20091;-68
2023/10/19 10:00:49;;;;;;;7.03;4.35;;;26.00;56.80;;;;;;5028068;28;20412;-70
2023/10/19 10:03:47;;;;;;;8.60;5.40;;;25.90;57.50;;;;;;5028020;28;20033;-71
2023/10/19 10:06:15;;;;;;;10.73;6.22;;;25.80;54.00;;;;;;5027964;28;20037;-70
2023/10/19 10:08:43;;;;;;;10.23;4.30;;;25.70;49.50;;;;;;5028134;28;20052;-70
2023/10/19 10:11:18;;;;;;;5.20;3.55;;;25.80;52.20;;;;;;5030776;28;20045;-71
2023/10/19 10:13:45;;;;;;;5.32;2.90;;;25.70;52.20;;;;;;5031438;28;20568;-69
2023/10/19 10:16:15;;;;;;;4.03;3.40;;;25.60;51.80;;;;;;5031689;28;20401;-72
2023/10/19 10:18:42;;;;;;;8.02;3.42;;;25.60;51.40;;;;;;5032283;28;20041;-71
2023/10/19 10:21:16;;;;;;;9.40;3.45;;;25.60;51.40;;;;;;5031479;28;20045;-72
2023/10/19 10:23:56;;;;;;;6.30;3.50;;;25.50;51.50;;;;;;5011259;28;20433;-71
2023/10/19 10:26:26;;;;;;;4.38;3.20;;;25.60;51.60;;;;;;5020651;28;20783;-71
2023/10/19 10:29:11;;;;;;;4.50;3.35;;;25.60;51.60;;;;;;5051087;28;20171;-71
2023/10/19 10:31:45;;;;;;;4.10;2.80;;;25.50;51.50;;;;;;5051476;28;20200;-71
2023/10/19 10:34:31;;;;;;;5.90;2.92;;;25.50;51.50;;;;;;5047633;28;20129;-70
2023/10/19 10:37:08;;;;;;;4.57;3.13;;;25.40;51.50;;;;;;5031249;28;20029;-70
2023/10/19 10:39:39;;;;;;;6.43;3.55;;;25.50;51.50;;;;;;5014130;28;20433;-71
2023/10/19 10:42:07;;;;;;;6.85;3.40;;;25.40;51.60;;;;;;5014551;28;20045;-71
2023/10/19 10:44:44;;;;;;;4.45;3.00;;;25.40;51.60;;;;;;5031179;28;20057;-69
2023/10/19 10:47:16;;;;;;;3.65;3.00;;;25.30;53.70;;;;;;5031405;28;20067;-71
2023/10/19 10:49:52;;;;;;;4.90;3.30;;;25.50;51.00;;;;;;5031289;28;20413;-72
2023/10/19 10:52:34;;;;;;;4.90;3.42;;;25.40;49.50;;;;;;5031460;28;20045;-71
2023/10/19 10:55:20;;;;;;;4.78;3.45;;;25.40;50.50;;;;;;5069649;28;20044;-73
2023/10/19 10:57:46;;;;;;;5.07;3.50;;;25.40;52.10;;;;;;5011707;28;20081;-72
2023/10/19 11:00:17;;;;;;;3.42;3.10;;;25.50;51.90;;;;;;4995521;28;20124;-72
2023/10/19 11:02:49;;;;;;;5.80;3.53;;;25.50;48.60;;;;;;5011425;28;20046;-72
2023/10/19 11:05:18;;;;;;;7.82;3.10;;;25.60;54.60;;;;;;4995062;28;20041;-73
2023/10/19 11:08:03;;;;;;;4.47;2.78;;;25.50;53.20;;;;;;5011599;28;20132;-72
2023/10/19 11:10:30;;;;;;;3.95;2.70;;;25.40;53.60;;;;;;5012221;28;20053;-73
2023/10/19 11:13:06;;;;;;;8.70;2.80;;;25.40;52.90;;;;;;5011709;28;20111;-70
2023/10/19 11:15:32;;;;;;;5.32;3.10;;;25.40;52.20;;;;;;5011484;28;20048;-73
2023/10/19 11:17:59;;;;;;;6.13;2.58;;;25.40;52.10;;;;;;4995030;28;20070;-73
2023/10/19 11:20:29;;;;;;;3.58;2.63;;;25.30;52.00;;;;;;4995430;28;20496;-73
2023/10/19 11:22:57;;;;;;;4.63;2.20;;;25.30;51.90;;;;;;4993561;28;20060;-73
2023/10/19 11:25:24;;;;;;;5.68;2.95;;;25.30;51.80;;;;;;5010353;28;20176;-73
2023/10/19 11:27:51;;;;;;;4.53;2.28;;;25.40;51.70;;;;;;4994339;28;20061;-76
2023/10/19 11:30:27;;;;;;;4.50;2.33;;;25.30;51.50;;;;;;5010484;28;20034;-70
2023/10/19 11:32:59;;;;;;;3.83;2.53;;;25.30;51.50;;;;;;4994045;28;20033;-70
2023/10/19 11:35:27;;;;;;;4.18;2.45;;;25.30;51.50;;;;;;5075245;28;20502;-73
2023/10/19 11:37:55;;;;;;;2.72;2.40;;;25.10;53.60;;;;;;5113035;28;20095;-73
2023/10/19 11:40:23;;;;;;;5.72;2.88;;;25.20;53.60;;;;;;5112694;28;20042;-74
2023/10/19 11:42:50;;;;;;;4.68;2.30;;;25.20;53.30;;;;;;5095098;28;20105;-74
2023/10/19 11:45:17;;;;;;;3.72;2.35;;;25.10;53.10;;;;;;5074765;28;20032;-72
2023/10/19 11:47:44;;;;;;;2.85;2.28;;;25.10;53.00;;;;;;5092781;28;20042;-74
2023/10/19 11:50:15;;;;;;;3.05;2.60;;;25.10;52.80;;;;;;5092910;28;20421;-73
2023/10/19 11:52:48;;;;;;;7.07;2.40;;;25.10;52.70;;;;;;5075004;28;20028;-69
2023/10/19 11:55:15;;;;;;;3.45;2.38;;;25.00;52.50;;;;;;5092612;28;20028;-71
2023/10/19 11:57:43;;;;;;;10.40;2.67;;;25.00;51.80;;;;;;5074798;28;20040;-70
2023/10/19 12:00:23;;;;;;;7.18;2.72;;;25.00;51.70;;;;;;5074536;28;20039;-70
2023/10/19 12:02:49;;;;;;;6.43;3.03;;;25.00;51.40;;;;;;5092293;28;20478;-70
2023/10/19 12:05:16;;;;;;;4.03;2.58;;;25.10;51.50;;;;;;5092385;28;20040;-68
2023/10/19 12:07:44;;;;;;;3.00;2.28;;;25.10;51.60;;;;;;5092170;28;20031;-69
2023/10/19 12:10:12;;;;;;;4.10;2.25;;;24.90;51.60;;;;;;5057621;28;20097;-72
2023/10/19 12:12:38;;;;;;;7.45;2.50;;;25.00;51.70;;;;;;5092138;28;20059;-69
2023/10/19 12:15:08;;;;;;;6.90;2.60;;;25.00;51.70;;;;;;5092595;28;20039;-70
2023/10/19 12:17:34;;;;;;;14.38;2.53;;;24.90;51.90;;;;;;5092467;28;20059;-70
2023/10/19 12:20:00;;;;;;;8.43;2.47;;;25.00;51.90;;;;;;5092838;28;20436;-70
2023/10/19 12:22:31;;;;;;;9.07;2.83;;;24.90;52.10;;;;;;5093056;28;20043;-70
2023/10/19 12:24:58;;;;;;;3.72;2.50;;;24.90;52.10;;;;;;5092687;28;20505;-68
2023/10/19 12:27:28;;;;;;;4.10;2.55;;;24.80;52.00;;;;;;5092037;28;20052;-70
2023/10/19 12:29:54;;;;;;;9.27;2.50;;;24.90;52.10;;;;;;5092109;28;20032;-69
2023/10/19 12:32:21;;;;;;;6.30;2.35;;;24.90;52.20;;;;;;5091683;28;20032;-70
2023/10/19 12:34:53;;;;;;;6.22;2.40;;;24.90;52.20;;;;;;5092038;28;20062;-70
2023/10/19 12:37:19;;;;;;;4.00;2.50;;;24.90;52.20;;;;;;5092152;28;20036;-69
2023/10/19 12:39:49;;;;;;;3.97;2.45;;;24.80;52.10;;;;;;5092496;28;20124;-70
2023/10/19 12:42:18;;;;;;;5.55;3.00;;;24.80;52.10;;;;;;5091720;28;20040;-70
2023/10/19 12:44:44;;;;;;;4.82;2.80;;;24.80;52.10;;;;;;5092229;28;20183;-70
2023/10/19 12:47:14;;;;;;;10.40;2.85;;;24.70;52.20;;;;;;5091657;28;20410;-70
2023/10/19 12:49:40;;;;;;;10.50;2.50;;;24.90;52.30;;;;;;5091905;28;20424;-70
2023/10/19 12:52:10;;;;;;;3.92;2.05;;;24.80;52.20;;;;;;5073723;28;20040;-69
2023/10/19 12:54:37;;;;;;;6.50;2.45;;;24.70;52.30;;;;;;5091630;28;20168;-68
2023/10/19 12:57:06;;;;;;;5.22;2.97;;;24.90;52.40;;;;;;5074040;28;20032;-69
2023/10/19 12:59:33;;;;;;;3.42;2.65;;;24.70;52.30;;;;;;5091578;28;20043;-70
2023/10/19 13:02:02;;;;;;;3.65;2.25;;;24.70;52.30;;;;;;5092064;28;20113;-71
2023/10/19 13:04:30;;;;;;;4.82;2.75;;;24.70;52.30;;;;;;5073662;28;20089;-69
2023/10/19 13:07:00;;;;;;;9.07;2.92;;;24.70;52.40;;;;;;5073568;28;20036;-70
2023/10/19 13:09:32;;;;;;;3.60;2.22;;;24.70;52.30;;;;;;5091335;28;20028;-70
2023/10/19 13:12:00;;;;;;;3.05;2.03;;;24.60;52.30;;;;;;5091451;28;20036;-70
2023/10/19 13:14:27;;;;;;;4.35;2.70;;;24.80;52.40;;;;;;5073310;28;20059;-70
2023/10/19 13:16:54;;;;;;;5.93;2.42;;;24.60;52.30;;;;;;5091547;28;20046;-70
2023/10/19 13:19:26;;;;;;;4.22;2.28;;;24.60;52.30;;;;;;5091533;28;20063;-70
2023/10/19 13:21:54;;;;;;;3.38;1.88;;;24.60;52.30;;;;;;5091787;28;20036;-70
2023/10/19 13:24:20;;;;;;;5.97;2.30;;;24.60;52.30;;;;;;5073079;28;20109;-70
2023/10/19 13:26:47;;;;;;;3.05;2.17;;;24.60;52.30;;;;;;5073401;28;20032;-70
2023/10/19 13:29:17;;;;;;;5.75;2.33;;;24.60;52.30;;;;;;5091599;28;20148;-69
2023/10/19 13:31:49;;;;;;;5.72;2.38;;;24.60;52.30;;;;;;5081218;28;20036;-70
2023/10/19 13:34:16;;;;;;;5.63;2.47;;;24.60;52.30;;;;;;5112079;28;20445;-69
2023/10/19 13:36:44;;;;;;;7.28;2.25;;;24.60;52.40;;;;;;5111312;28;20036;-70